2022年5月17日 07:002022年5月17日 19:00有效
时间
星期二
07:00
星期二
08:00
星期二
09:00
星期二
10:00
星期二
11:00
星期二
12:00
星期二
13:00
星期二
14:00
星期二
15:00
星期二
16:00
星期二
17:00
星期二
18:00
代码
VFR
VFR
VFR
VFR
VFR
VFR
VFR
VFR
VFR
VFR
VFR
VFR
天气
天空晴朗
天空晴朗
天空晴朗
天空晴朗
天空晴朗
天空晴朗
天空晴朗
天空晴朗
天空晴朗
天空晴朗
天空晴朗
天空晴朗
能见度
10 km+
10 km+
10 km+
10 km+
10 km+
10 km+
10 km+
10 km+
10 km+
10 km+
10 km+
10 km+
天花板
-
-
-
-
-
-
-
-
-
-
-
-
240°
240°
240°
240°
240°
240°
240°
240°
240°
240°
240°
240°
240°
240°
240°
240°
340°
340°
340°
340°
340°
340°
340°
340°
速度
6 kt
6 kt
6 kt
6 kt
6 kt
6 kt
6 kt
6 kt
7 kt
7 kt
7 kt
7 kt
阵风
温度/星期日

原版的

TAF EHLW 170405Z 1705/1717 24006KT CAVOK
BECMG 1713/1715 34007KT

TAF Ameland Airport Ballum

Ameland Airport Ballum是Ameland,荷兰中的小机场。 该机场有一条跑道: 8/26.

这份报告是针对2022年5月17日 06:05, 当地时间在Leeuwarden Air Base进行的。 从2022年5月17日 07:00到2022年5月17日 19:00, 当地时间有效.

预报

  • 从星期二 07:00到19:00

    • 风: 风来自240°方向,速度为6 kt。
    • CAVOK: 天气为CAVOK。这意味着在5.000 ft或MSA(最低安全高度)以下(以较高者为准)以下没有云。这也意味着没有观测到积雨云或高耸的积云,可见度为10 km 或者更多或更高。此外,不会有雾,降雨或其他重要天气。

  • 介于星期二 15:00和17:00之间

    • 风: 风来自340°方向,速度为7 kt。

白天

今天,太阳从05:33升起,在21:33降落。 这适用于Ameland Airport Ballum,世界夏令时可能有所不同。 当地时间与世界标准时间之间的时差为+2 小时。 夏令时目前正在进行中。

下载我们的应用程序

在您的手机和平板电脑上轻松访问所有航空天气。
有许多网站上没有的功能,如离线支持和个人机场列表。

Studio Eveline

Benalmádena
España